Aviation Digital Data Service (ADDS)

Output produced by TAFs form (0328 UTC 02 March 2015)
found at http://www.aviationweather.gov/adds/tafs/
 
KMRB 020111Z 0201/0224 VRB03KT 5SM BR SCT005 OVC030 
     FM020500 29004KT P6SM BKN035 
     FM021200 30008KT P6SM BKN060 
     FM021500 31013G22KT P6SM SCT200